Terminal Aerodrome Forecast
Issued by NWS Charleston, WV

Current Version | Previous Version | Graphics & Text | Print | Product List | Glossary On
Versions: 1 2 3 4 5 6 7 8 9 10 11 12 13 14 15 16 17 18 19 20 21 22 23
000
FTUS41 KRLX 291731
TAFCRW
TAF
KCRW 291731Z 2918/3018 24005KT P6SM SCT050
     FM300500 00000KT 6SM BR SCT050
     FM300800 00000KT 4SM BR SCT060
     FM301100 00000KT 6SM BR BKN050
     FM301300 22005KT P6SM BKN060=

USA.gov is the U.S. government's official web portal to all federal, state and local government web resources and services.